sensor_id;sensor_type;location;lat;lon;timestamp;P1;durP1;ratioP1;P2;durP2;ratioP2
32613;SDS011;19031;51.400;6.770;2023-08-31T00:02:16;6.95;;;2.60;;
32613;SDS011;19031;51.400;6.770;2023-08-31T00:04:42;7.18;;;2.75;;
32613;SDS011;19031;51.400;6.770;2023-08-31T00:07:08;5.28;;;2.20;;
32613;SDS011;19031;51.400;6.770;2023-08-31T00:09:33;9.25;;;3.22;;
32613;SDS011;19031;51.400;6.770;2023-08-31T00:12:00;5.80;;;2.70;;
32613;SDS011;19031;51.400;6.770;2023-08-31T00:14:27;9.07;;;3.30;;
32613;SDS011;19031;51.400;6.770;2023-08-31T00:16:53;7.13;;;3.03;;
32613;SDS011;19031;51.400;6.770;2023-08-31T00:19:23;9.43;;;3.05;;
32613;SDS011;19031;51.400;6.770;2023-08-31T00:21:48;7.00;;;3.08;;
32613;SDS011;19031;51.400;6.770;2023-08-31T00:24:14;7.53;;;3.42;;
32613;SDS011;19031;51.400;6.770;2023-08-31T00:26:40;9.05;;;2.78;;
32613;SDS011;19031;51.400;6.770;2023-08-31T00:29:10;9.45;;;3.25;;
32613;SDS011;19031;51.400;6.770;2023-08-31T00:31:36;6.90;;;3.05;;
32613;SDS011;19031;51.400;6.770;2023-08-31T00:34:02;9.82;;;3.30;;
32613;SDS011;19031;51.400;6.770;2023-08-31T00:36:29;5.45;;;3.10;;
32613;SDS011;19031;51.400;6.770;2023-08-31T00:39:07;7.20;;;3.20;;
32613;SDS011;19031;51.400;6.770;2023-08-31T00:41:35;11.15;;;3.63;;
32613;SDS011;19031;51.400;6.770;2023-08-31T00:44:02;6.68;;;3.10;;
32613;SDS011;19031;51.400;6.770;2023-08-31T00:46:29;8.25;;;3.45;;
32613;SDS011;19031;51.400;6.770;2023-08-31T00:48:56;9.55;;;3.50;;
32613;SDS011;19031;51.400;6.770;2023-08-31T00:51:24;8.32;;;3.35;;
32613;SDS011;19031;51.400;6.770;2023-08-31T00:53:51;6.57;;;3.13;;
32613;SDS011;19031;51.400;6.770;2023-08-31T00:56:19;11.85;;;3.80;;
32613;SDS011;19031;51.400;6.770;2023-08-31T00:58:45;4.55;;;2.75;;
32613;SDS011;19031;51.400;6.770;2023-08-31T01:06:32;6.45;;;3.00;;
32613;SDS011;19031;51.400;6.770;2023-08-31T01:09:14;9.40;;;3.58;;
32613;SDS011;19031;51.400;6.770;2023-08-31T01:12:06;10.30;;;3.45;;
32613;SDS011;19031;51.400;6.770;2023-08-31T01:14:54;11.32;;;3.92;;
32613;SDS011;19031;51.400;6.770;2023-08-31T01:17:26;8.18;;;2.88;;
32613;SDS011;19031;51.400;6.770;2023-08-31T01:19:55;6.28;;;3.15;;
32613;SDS011;19031;51.400;6.770;2023-08-31T01:24:55;7.30;;;3.58;;
32613;SDS011;19031;51.400;6.770;2023-08-31T01:27:22;8.93;;;2.92;;
32613;SDS011;19031;51.400;6.770;2023-08-31T01:29:48;10.43;;;3.70;;
32613;SDS011;19031;51.400;6.770;2023-08-31T01:32:14;9.23;;;3.55;;
32613;SDS011;19031;51.400;6.770;2023-08-31T01:34:40;5.43;;;3.83;;
32613;SDS011;19031;51.400;6.770;2023-08-31T01:37:08;9.90;;;4.55;;
32613;SDS011;19031;51.400;6.770;2023-08-31T01:39:49;10.02;;;4.60;;
32613;SDS011;19031;51.400;6.770;2023-08-31T01:42:20;12.23;;;4.22;;
32613;SDS011;19031;51.400;6.770;2023-08-31T01:44:46;7.95;;;4.38;;
32613;SDS011;19031;51.400;6.770;2023-08-31T01:47:14;7.32;;;3.13;;
32613;SDS011;19031;51.400;6.770;2023-08-31T01:49:42;6.88;;;4.32;;
32613;SDS011;19031;51.400;6.770;2023-08-31T01:52:08;12.23;;;4.53;;
32613;SDS011;19031;51.400;6.770;2023-08-31T01:54:34;7.35;;;4.35;;
32613;SDS011;19031;51.400;6.770;2023-08-31T01:57:02;8.15;;;3.72;;
32613;SDS011;19031;51.400;6.770;2023-08-31T01:59:28;8.18;;;4.88;;
32613;SDS011;19031;51.400;6.770;2023-08-31T02:01:53;9.82;;;4.25;;
32613;SDS011;19031;51.400;6.770;2023-08-31T02:04:19;10.63;;;4.80;;
32613;SDS011;19031;51.400;6.770;2023-08-31T02:06:44;8.02;;;4.38;;
32613;SDS011;19031;51.400;6.770;2023-08-31T02:09:10;7.93;;;4.38;;
32613;SDS011;19031;51.400;6.770;2023-08-31T02:11:35;8.38;;;4.45;;
32613;SDS011;19031;51.400;6.770;2023-08-31T02:14:21;8.75;;;4.45;;
32613;SDS011;19031;51.400;6.770;2023-08-31T02:16:47;9.73;;;4.75;;
32613;SDS011;19031;51.400;6.770;2023-08-31T02:19:13;10.10;;;4.88;;
32613;SDS011;19031;51.400;6.770;2023-08-31T02:21:38;9.18;;;4.78;;
32613;SDS011;19031;51.400;6.770;2023-08-31T02:24:04;8.15;;;4.28;;
32613;SDS011;19031;51.400;6.770;2023-08-31T02:26:30;8.98;;;4.38;;
32613;SDS011;19031;51.400;6.770;2023-08-31T02:28:55;11.93;;;4.57;;
32613;SDS011;19031;51.400;6.770;2023-08-31T02:31:21;8.93;;;4.20;;
32613;SDS011;19031;51.400;6.770;2023-08-31T02:33:46;8.02;;;4.05;;
32613;SDS011;19031;51.400;6.770;2023-08-31T02:36:13;8.23;;;3.95;;
32613;SDS011;19031;51.400;6.770;2023-08-31T02:38:38;7.85;;;4.25;;
32613;SDS011;19031;51.400;6.770;2023-08-31T02:41:04;7.82;;;3.35;;
32613;SDS011;19031;51.400;6.770;2023-08-31T02:43:29;5.18;;;3.78;;
32613;SDS011;19031;51.400;6.770;2023-08-31T02:46:01;7.45;;;4.13;;
32613;SDS011;19031;51.400;6.770;2023-08-31T02:48:28;7.88;;;3.63;;
32613;SDS011;19031;51.400;6.770;2023-08-31T02:50:54;8.57;;;3.67;;
32613;SDS011;19031;51.400;6.770;2023-08-31T02:53:26;6.30;;;3.55;;
32613;SDS011;19031;51.400;6.770;2023-08-31T02:55:52;6.90;;;3.67;;
32613;SDS011;19031;51.400;6.770;2023-08-31T02:58:17;9.65;;;4.13;;
32613;SDS011;19031;51.400;6.770;2023-08-31T03:00:44;9.30;;;3.92;;
32613;SDS011;19031;51.400;6.770;2023-08-31T03:03:13;8.05;;;4.25;;
32613;SDS011;19031;51.400;6.770;2023-08-31T03:05:39;6.70;;;3.20;;
32613;SDS011;19031;51.400;6.770;2023-08-31T03:08:05;5.88;;;3.63;;
32613;SDS011;19031;51.400;6.770;2023-08-31T03:10:30;7.45;;;3.08;;
32613;SDS011;19031;51.400;6.770;2023-08-31T03:12:56;7.63;;;4.00;;
32613;SDS011;19031;51.400;6.770;2023-08-31T03:15:22;7.20;;;3.85;;
32613;SDS011;19031;51.400;6.770;2023-08-31T03:17:48;9.57;;;3.40;;
32613;SDS011;19031;51.400;6.770;2023-08-31T03:20:13;8.15;;;4.07;;
32613;SDS011;19031;51.400;6.770;2023-08-31T03:22:39;12.60;;;4.78;;
32613;SDS011;19031;51.400;6.770;2023-08-31T03:25:05;5.82;;;4.05;;
32613;SDS011;19031;51.400;6.770;2023-08-31T03:27:31;12.07;;;4.82;;
32613;SDS011;19031;51.400;6.770;2023-08-31T03:29:56;9.77;;;4.35;;
32613;SDS011;19031;51.400;6.770;2023-08-31T03:32:22;6.10;;;3.80;;
32613;SDS011;19031;51.400;6.770;2023-08-31T03:34:48;7.68;;;4.22;;
32613;SDS011;19031;51.400;6.770;2023-08-31T03:37:14;8.00;;;4.07;;
32613;SDS011;19031;51.400;6.770;2023-08-31T03:39:40;8.50;;;4.80;;
32613;SDS011;19031;51.400;6.770;2023-08-31T03:42:07;9.60;;;4.93;;
32613;SDS011;19031;51.400;6.770;2023-08-31T03:44:35;9.32;;;4.70;;
32613;SDS011;19031;51.400;6.770;2023-08-31T03:47:02;7.22;;;3.75;;
32613;SDS011;19031;51.400;6.770;2023-08-31T03:49:28;8.18;;;4.25;;
32613;SDS011;19031;51.400;6.770;2023-08-31T03:51:55;7.93;;;4.22;;
32613;SDS011;19031;51.400;6.770;2023-08-31T03:54:20;15.65;;;5.00;;
32613;SDS011;19031;51.400;6.770;2023-08-31T03:56:46;9.15;;;4.95;;
32613;SDS011;19031;51.400;6.770;2023-08-31T03:59:12;7.97;;;4.15;;
32613;SDS011;19031;51.400;6.770;2023-08-31T04:01:37;9.27;;;4.72;;
32613;SDS011;19031;51.400;6.770;2023-08-31T04:04:03;9.88;;;4.70;;
32613;SDS011;19031;51.400;6.770;2023-08-31T04:06:30;7.45;;;3.88;;
32613;SDS011;19031;51.400;6.770;2023-08-31T04:08:55;9.43;;;4.07;;
32613;SDS011;19031;51.400;6.770;2023-08-31T04:11:21;6.40;;;4.45;;
32613;SDS011;19031;51.400;6.770;2023-08-31T04:13:47;7.45;;;3.55;;
32613;SDS011;19031;51.400;6.770;2023-08-31T04:16:13;7.82;;;3.95;;
32613;SDS011;19031;51.400;6.770;2023-08-31T04:18:38;6.60;;;3.78;;
32613;SDS011;19031;51.400;6.770;2023-08-31T04:21:04;9.18;;;3.75;;
32613;SDS011;19031;51.400;6.770;2023-08-31T04:23:31;5.13;;;3.60;;
32613;SDS011;19031;51.400;6.770;2023-08-31T04:25:58;9.48;;;4.05;;
32613;SDS011;19031;51.400;6.770;2023-08-31T04:28:24;5.72;;;3.60;;
32613;SDS011;19031;51.400;6.770;2023-08-31T04:30:50;6.93;;;3.80;;
32613;SDS011;19031;51.400;6.770;2023-08-31T04:33:16;5.13;;;3.38;;
32613;SDS011;19031;51.400;6.770;2023-08-31T04:35:42;7.47;;;3.22;;
32613;SDS011;19031;51.400;6.770;2023-08-31T04:38:08;11.05;;;3.25;;
32613;SDS011;19031;51.400;6.770;2023-08-31T04:40:33;7.28;;;3.88;;
32613;SDS011;19031;51.400;6.770;2023-08-31T04:42:59;7.15;;;3.72;;
32613;SDS011;19031;51.400;6.770;2023-08-31T04:45:25;5.35;;;3.60;;
32613;SDS011;19031;51.400;6.770;2023-08-31T04:47:51;8.50;;;4.28;;
32613;SDS011;19031;51.400;6.770;2023-08-31T04:50:17;5.70;;;4.07;;
32613;SDS011;19031;51.400;6.770;2023-08-31T04:52:42;6.82;;;3.78;;
32613;SDS011;19031;51.400;6.770;2023-08-31T04:55:08;10.00;;;4.05;;
32613;SDS011;19031;51.400;6.770;2023-08-31T04:57:34;8.23;;;4.13;;
32613;SDS011;19031;51.400;6.770;2023-08-31T05:00:00;8.65;;;4.45;;
32613;SDS011;19031;51.400;6.770;2023-08-31T05:02:26;9.05;;;3.80;;
32613;SDS011;19031;51.400;6.770;2023-08-31T05:04:52;10.13;;;3.80;;
32613;SDS011;19031;51.400;6.770;2023-08-31T05:07:18;7.40;;;4.07;;
32613;SDS011;19031;51.400;6.770;2023-08-31T05:09:44;7.05;;;4.22;;
32613;SDS011;19031;51.400;6.770;2023-08-31T05:12:09;8.88;;;4.05;;
32613;SDS011;19031;51.400;6.770;2023-08-31T05:14:35;10.05;;;4.03;;
32613;SDS011;19031;51.400;6.770;2023-08-31T05:17:02;8.65;;;4.25;;
32613;SDS011;19031;51.400;6.770;2023-08-31T05:19:30;8.73;;;4.28;;
32613;SDS011;19031;51.400;6.770;2023-08-31T05:21:55;9.70;;;4.07;;
32613;SDS011;19031;51.400;6.770;2023-08-31T05:24:21;8.65;;;4.25;;
32613;SDS011;19031;51.400;6.770;2023-08-31T05:26:47;6.63;;;4.15;;
32613;SDS011;19031;51.400;6.770;2023-08-31T05:29:13;17.45;;;4.70;;
32613;SDS011;19031;51.400;6.770;2023-08-31T05:31:39;10.52;;;4.18;;
32613;SDS011;19031;51.400;6.770;2023-08-31T05:34:04;13.73;;;4.53;;
32613;SDS011;19031;51.400;6.770;2023-08-31T05:36:30;8.27;;;4.93;;
32613;SDS011;19031;51.400;6.770;2023-08-31T05:38:55;9.38;;;4.80;;
32613;SDS011;19031;51.400;6.770;2023-08-31T05:41:21;12.07;;;4.80;;
32613;SDS011;19031;51.400;6.770;2023-08-31T05:43:47;10.52;;;5.05;;
32613;SDS011;19031;51.400;6.770;2023-08-31T05:46:12;10.45;;;5.70;;
32613;SDS011;19031;51.400;6.770;2023-08-31T05:48:38;8.65;;;5.55;;
32613;SDS011;19031;51.400;6.770;2023-08-31T05:51:04;7.70;;;4.65;;
32613;SDS011;19031;51.400;6.770;2023-08-31T05:53:30;8.27;;;5.35;;
32613;SDS011;19031;51.400;6.770;2023-08-31T05:55:56;12.30;;;6.00;;
32613;SDS011;19031;51.400;6.770;2023-08-31T05:58:29;18.38;;;7.72;;
32613;SDS011;19031;51.400;6.770;2023-08-31T06:00:56;17.70;;;7.78;;
32613;SDS011;19031;51.400;6.770;2023-08-31T06:03:21;15.63;;;7.50;;
32613;SDS011;19031;51.400;6.770;2023-08-31T06:05:47;16.17;;;7.90;;
32613;SDS011;19031;51.400;6.770;2023-08-31T06:08:13;15.57;;;8.02;;
32613;SDS011;19031;51.400;6.770;2023-08-31T06:10:38;16.83;;;7.90;;
32613;SDS011;19031;51.400;6.770;2023-08-31T06:13:04;14.55;;;7.47;;
32613;SDS011;19031;51.400;6.770;2023-08-31T06:15:30;16.58;;;7.40;;
32613;SDS011;19031;51.400;6.770;2023-08-31T06:17:55;13.10;;;7.57;;
32613;SDS011;19031;51.400;6.770;2023-08-31T06:20:21;15.32;;;7.78;;
32613;SDS011;19031;51.400;6.770;2023-08-31T06:22:47;11.18;;;6.72;;
32613;SDS011;19031;51.400;6.770;2023-08-31T06:25:13;14.13;;;8.02;;
32613;SDS011;19031;51.400;6.770;2023-08-31T06:27:41;11.75;;;6.55;;
32613;SDS011;19031;51.400;6.770;2023-08-31T06:30:08;16.02;;;6.55;;
32613;SDS011;19031;51.400;6.770;2023-08-31T06:32:37;9.95;;;6.13;;
32613;SDS011;19031;51.400;6.770;2023-08-31T06:35:02;18.65;;;6.82;;
32613;SDS011;19031;51.400;6.770;2023-08-31T06:37:28;13.05;;;6.90;;
32613;SDS011;19031;51.400;6.770;2023-08-31T06:39:54;16.67;;;6.70;;
32613;SDS011;19031;51.400;6.770;2023-08-31T06:42:19;11.38;;;7.90;;
32613;SDS011;19031;51.400;6.770;2023-08-31T06:44:45;15.32;;;5.70;;
32613;SDS011;19031;51.400;6.770;2023-08-31T06:47:11;10.38;;;5.63;;
32613;SDS011;19031;51.400;6.770;2023-08-31T06:49:38;11.20;;;5.25;;
32613;SDS011;19031;51.400;6.770;2023-08-31T06:52:04;9.90;;;5.40;;
32613;SDS011;19031;51.400;6.770;2023-08-31T06:54:32;7.35;;;4.65;;
32613;SDS011;19031;51.400;6.770;2023-08-31T06:56:58;13.98;;;5.13;;
32613;SDS011;19031;51.400;6.770;2023-08-31T06:59:24;8.27;;;4.68;;
32613;SDS011;19031;51.400;6.770;2023-08-31T07:01:49;7.03;;;3.90;;
32613;SDS011;19031;51.400;6.770;2023-08-31T07:04:15;9.73;;;4.65;;
32613;SDS011;19031;51.400;6.770;2023-08-31T07:06:41;9.52;;;4.63;;
32613;SDS011;19031;51.400;6.770;2023-08-31T07:09:06;9.05;;;5.03;;
32613;SDS011;19031;51.400;6.770;2023-08-31T07:11:33;6.07;;;3.63;;
32613;SDS011;19031;51.400;6.770;2023-08-31T07:13:59;10.20;;;4.22;;
32613;SDS011;19031;51.400;6.770;2023-08-31T07:16:25;7.88;;;4.50;;
32613;SDS011;19031;51.400;6.770;2023-08-31T07:18:51;11.80;;;3.70;;
32613;SDS011;19031;51.400;6.770;2023-08-31T07:21:16;6.30;;;3.42;;
32613;SDS011;19031;51.400;6.770;2023-08-31T07:23:43;6.03;;;3.03;;
32613;SDS011;19031;51.400;6.770;2023-08-31T07:26:08;6.78;;;3.15;;
32613;SDS011;19031;51.400;6.770;2023-08-31T07:28:34;7.30;;;3.50;;
32613;SDS011;19031;51.400;6.770;2023-08-31T07:31:00;8.82;;;2.70;;
32613;SDS011;19031;51.400;6.770;2023-08-31T07:33:28;6.35;;;2.80;;
32613;SDS011;19031;51.400;6.770;2023-08-31T07:35:55;5.60;;;2.72;;
32613;SDS011;19031;51.400;6.770;2023-08-31T07:38:21;5.57;;;2.40;;
32613;SDS011;19031;51.400;6.770;2023-08-31T07:40:46;8.75;;;3.00;;
32613;SDS011;19031;51.400;6.770;2023-08-31T07:43:12;6.30;;;2.15;;
32613;SDS011;19031;51.400;6.770;2023-08-31T07:45:38;6.22;;;2.50;;
32613;SDS011;19031;51.400;6.770;2023-08-31T07:48:04;6.78;;;2.78;;
32613;SDS011;19031;51.400;6.770;2023-08-31T07:50:31;3.97;;;2.05;;
32613;SDS011;19031;51.400;6.770;2023-08-31T07:52:57;4.40;;;2.22;;
32613;SDS011;19031;51.400;6.770;2023-08-31T07:55:23;7.07;;;2.28;;
32613;SDS011;19031;51.400;6.770;2023-08-31T07:57:48;3.92;;;2.25;;
32613;SDS011;19031;51.400;6.770;2023-08-31T08:00:14;8.98;;;2.50;;
32613;SDS011;19031;51.400;6.770;2023-08-31T08:02:40;7.38;;;2.50;;
32613;SDS011;19031;51.400;6.770;2023-08-31T08:05:06;4.85;;;2.53;;
32613;SDS011;19031;51.400;6.770;2023-08-31T08:07:31;4.82;;;2.35;;
32613;SDS011;19031;51.400;6.770;2023-08-31T08:09:57;6.07;;;2.17;;
32613;SDS011;19031;51.400;6.770;2023-08-31T08:12:24;6.68;;;2.17;;
32613;SDS011;19031;51.400;6.770;2023-08-31T08:14:50;7.57;;;2.40;;
32613;SDS011;19031;51.400;6.770;2023-08-31T08:17:15;4.07;;;2.13;;
32613;SDS011;19031;51.400;6.770;2023-08-31T08:19:41;8.65;;;3.08;;
32613;SDS011;19031;51.400;6.770;2023-08-31T08:22:06;6.95;;;2.40;;
32613;SDS011;19031;51.400;6.770;2023-08-31T08:24:32;3.53;;;1.98;;
32613;SDS011;19031;51.400;6.770;2023-08-31T08:26:58;7.53;;;2.30;;
32613;SDS011;19031;51.400;6.770;2023-08-31T08:29:24;7.05;;;2.15;;
32613;SDS011;19031;51.400;6.770;2023-08-31T08:31:50;6.47;;;2.42;;
32613;SDS011;19031;51.400;6.770;2023-08-31T08:34:15;5.63;;;2.35;;
32613;SDS011;19031;51.400;6.770;2023-08-31T08:36:41;5.78;;;2.30;;
32613;SDS011;19031;51.400;6.770;2023-08-31T08:39:06;4.72;;;2.17;;
32613;SDS011;19031;51.400;6.770;2023-08-31T08:41:32;5.93;;;1.73;;
32613;SDS011;19031;51.400;6.770;2023-08-31T08:44:01;6.10;;;2.30;;
32613;SDS011;19031;51.400;6.770;2023-08-31T08:46:29;5.43;;;2.08;;
32613;SDS011;19031;51.400;6.770;2023-08-31T08:48:57;4.70;;;1.85;;
32613;SDS011;19031;51.400;6.770;2023-08-31T08:51:26;4.30;;;1.90;;
32613;SDS011;19031;51.400;6.770;2023-08-31T08:53:52;6.45;;;2.30;;
32613;SDS011;19031;51.400;6.770;2023-08-31T08:56:19;6.57;;;1.75;;
32613;SDS011;19031;51.400;6.770;2023-08-31T08:58:45;6.53;;;2.13;;
32613;SDS011;19031;51.400;6.770;2023-08-31T09:01:10;3.55;;;1.50;;
32613;SDS011;19031;51.400;6.770;2023-08-31T09:03:36;5.53;;;1.67;;
32613;SDS011;19031;51.400;6.770;2023-08-31T09:06:02;4.00;;;1.60;;
32613;SDS011;19031;51.400;6.770;2023-08-31T09:08:29;4.82;;;1.88;;
32613;SDS011;19031;51.400;6.770;2023-08-31T09:10:56;4.97;;;1.83;;
32613;SDS011;19031;51.400;6.770;2023-08-31T09:13:23;3.30;;;1.65;;
32613;SDS011;19031;51.400;6.770;2023-08-31T09:15:53;4.25;;;1.92;;
32613;SDS011;19031;51.400;6.770;2023-08-31T09:18:23;4.78;;;1.65;;
32613;SDS011;19031;51.400;6.770;2023-08-31T09:20:50;3.78;;;1.95;;
32613;SDS011;19031;51.400;6.770;2023-08-31T09:23:17;4.32;;;1.70;;
32613;SDS011;19031;51.400;6.770;2023-08-31T09:25:46;4.28;;;1.38;;
32613;SDS011;19031;51.400;6.770;2023-08-31T09:28:22;6.35;;;1.60;;
32613;SDS011;19031;51.400;6.770;2023-08-31T09:30:49;6.40;;;1.70;;
32613;SDS011;19031;51.400;6.770;2023-08-31T09:33:16;4.22;;;1.45;;
32613;SDS011;19031;51.400;6.770;2023-08-31T09:35:47;4.65;;;1.58;;
32613;SDS011;19031;51.400;6.770;2023-08-31T09:38:16;3.40;;;1.65;;
32613;SDS011;19031;51.400;6.770;2023-08-31T09:40:42;9.55;;;1.70;;
32613;SDS011;19031;51.400;6.770;2023-08-31T09:43:08;2.95;;;1.42;;
32613;SDS011;19031;51.400;6.770;2023-08-31T09:45:34;5.60;;;1.88;;
32613;SDS011;19031;51.400;6.770;2023-08-31T09:48:00;4.95;;;1.60;;
32613;SDS011;19031;51.400;6.770;2023-08-31T09:50:31;5.07;;;1.50;;
32613;SDS011;19031;51.400;6.770;2023-08-31T09:53:00;3.58;;;1.40;;
32613;SDS011;19031;51.400;6.770;2023-08-31T09:55:29;6.55;;;1.92;;
32613;SDS011;19031;51.400;6.770;2023-08-31T09:57:56;4.45;;;1.38;;
32613;SDS011;19031;51.400;6.770;2023-08-31T10:00:26;2.90;;;1.30;;
32613;SDS011;19031;51.400;6.770;2023-08-31T10:02:54;5.50;;;1.35;;
32613;SDS011;19031;51.400;6.770;2023-08-31T10:05:22;4.72;;;1.60;;
32613;SDS011;19031;51.400;6.770;2023-08-31T10:07:49;5.22;;;1.02;;
32613;SDS011;19031;51.400;6.770;2023-08-31T10:10:16;3.67;;;1.50;;
32613;SDS011;19031;51.400;6.770;2023-08-31T10:12:44;5.75;;;1.40;;
32613;SDS011;19031;51.400;6.770;2023-08-31T10:15:11;5.82;;;1.20;;
32613;SDS011;19031;51.400;6.770;2023-08-31T10:17:37;5.30;;;1.30;;
32613;SDS011;19031;51.400;6.770;2023-08-31T10:20:06;6.60;;;1.58;;
32613;SDS011;19031;51.400;6.770;2023-08-31T10:22:33;6.60;;;1.70;;
32613;SDS011;19031;51.400;6.770;2023-08-31T10:25:02;3.25;;;1.02;;
32613;SDS011;19031;51.400;6.770;2023-08-31T10:27:40;5.50;;;1.67;;
32613;SDS011;19031;51.400;6.770;2023-08-31T10:36:02;4.85;;;1.40;;
32613;SDS011;19031;51.400;6.770;2023-08-31T10:41:16;5.15;;;1.67;;
32613;SDS011;19031;51.400;6.770;2023-08-31T10:43:53;3.88;;;1.60;;
32613;SDS011;19031;51.400;6.770;2023-08-31T10:51:34;5.63;;;1.70;;
32613;SDS011;19031;51.400;6.770;2023-08-31T10:57:03;3.70;;;1.50;;
32613;SDS011;19031;51.400;6.770;2023-08-31T10:59:43;3.65;;;1.52;;
32613;SDS011;19031;51.400;6.770;2023-08-31T11:05:00;9.23;;;2.28;;
32613;SDS011;19031;51.400;6.770;2023-08-31T11:07:28;5.18;;;1.30;;
32613;SDS011;19031;51.400;6.770;2023-08-31T11:10:06;3.53;;;1.52;;
32613;SDS011;19031;51.400;6.770;2023-08-31T11:12:36;4.28;;;1.17;;
32613;SDS011;19031;51.400;6.770;2023-08-31T11:15:02;3.72;;;1.38;;
32613;SDS011;19031;51.400;6.770;2023-08-31T11:17:29;6.07;;;1.30;;
32613;SDS011;19031;51.400;6.770;2023-08-31T11:19:57;5.20;;;1.00;;
32613;SDS011;19031;51.400;6.770;2023-08-31T11:22:22;4.70;;;1.52;;
32613;SDS011;19031;51.400;6.770;2023-08-31T11:24:48;4.72;;;1.23;;
32613;SDS011;19031;51.400;6.770;2023-08-31T11:27:14;8.25;;;1.70;;
32613;SDS011;19031;51.400;6.770;2023-08-31T11:29:43;4.47;;;1.60;;
32613;SDS011;19031;51.400;6.770;2023-08-31T11:32:09;3.88;;;1.35;;
32613;SDS011;19031;51.400;6.770;2023-08-31T11:34:35;4.53;;;1.45;;
32613;SDS011;19031;51.400;6.770;2023-08-31T11:37:06;6.82;;;1.23;;
32613;SDS011;19031;51.400;6.770;2023-08-31T11:39:32;4.28;;;1.38;;
32613;SDS011;19031;51.400;6.770;2023-08-31T11:41:58;2.53;;;1.20;;
32613;SDS011;19031;51.400;6.770;2023-08-31T11:44:23;4.35;;;1.30;;
32613;SDS011;19031;51.400;6.770;2023-08-31T11:46:49;5.40;;;1.40;;
32613;SDS011;19031;51.400;6.770;2023-08-31T11:49:19;5.75;;;1.40;;
32613;SDS011;19031;51.400;6.770;2023-08-31T11:51:46;2.67;;;1.23;;
32613;SDS011;19031;51.400;6.770;2023-08-31T11:54:13;4.47;;;1.20;;
32613;SDS011;19031;51.400;6.770;2023-08-31T11:56:39;6.30;;;1.48;;
32613;SDS011;19031;51.400;6.770;2023-08-31T11:59:12;4.15;;;1.30;;
32613;SDS011;19031;51.400;6.770;2023-08-31T12:01:41;1.80;;;0.77;;
32613;SDS011;19031;51.400;6.770;2023-08-31T12:04:14;4.28;;;1.55;;
32613;SDS011;19031;51.400;6.770;2023-08-31T12:06:40;5.32;;;1.30;;
32613;SDS011;19031;51.400;6.770;2023-08-31T12:09:07;6.00;;;1.33;;
32613;SDS011;19031;51.400;6.770;2023-08-31T12:11:33;6.47;;;1.30;;
32613;SDS011;19031;51.400;6.770;2023-08-31T12:14:03;3.50;;;1.10;;
32613;SDS011;19031;51.400;6.770;2023-08-31T12:16:42;4.18;;;1.30;;
32613;SDS011;19031;51.400;6.770;2023-08-31T12:19:09;8.55;;;1.40;;
32613;SDS011;19031;51.400;6.770;2023-08-31T12:21:34;8.48;;;1.55;;
32613;SDS011;19031;51.400;6.770;2023-08-31T12:24:00;3.85;;;1.48;;
32613;SDS011;19031;51.400;6.770;2023-08-31T12:26:28;4.68;;;1.25;;
32613;SDS011;19031;51.400;6.770;2023-08-31T12:28:54;5.20;;;1.20;;
32613;SDS011;19031;51.400;6.770;2023-08-31T12:31:20;6.25;;;1.17;;
32613;SDS011;19031;51.400;6.770;2023-08-31T12:33:47;2.30;;;1.08;;
32613;SDS011;19031;51.400;6.770;2023-08-31T12:36:12;3.15;;;1.15;;
32613;SDS011;19031;51.400;6.770;2023-08-31T12:38:38;4.10;;;1.20;;
32613;SDS011;19031;51.400;6.770;2023-08-31T12:41:04;5.25;;;1.23;;
32613;SDS011;19031;51.400;6.770;2023-08-31T12:43:29;8.00;;;1.70;;
32613;SDS011;19031;51.400;6.770;2023-08-31T12:45:56;11.77;;;1.80;;
32613;SDS011;19031;51.400;6.770;2023-08-31T12:48:22;7.45;;;1.30;;
32613;SDS011;19031;51.400;6.770;2023-08-31T12:50:47;4.40;;;1.17;;
32613;SDS011;19031;51.400;6.770;2023-08-31T12:53:13;3.22;;;1.20;;
32613;SDS011;19031;51.400;6.770;2023-08-31T12:55:39;8.80;;;1.52;;
32613;SDS011;19031;51.400;6.770;2023-08-31T12:58:05;5.57;;;1.27;;
32613;SDS011;19031;51.400;6.770;2023-08-31T13:00:31;3.83;;;1.33;;
32613;SDS011;19031;51.400;6.770;2023-08-31T13:02:56;7.38;;;1.40;;
32613;SDS011;19031;51.400;6.770;2023-08-31T13:05:22;4.13;;;1.20;;
32613;SDS011;19031;51.400;6.770;2023-08-31T13:07:48;7.70;;;1.30;;
32613;SDS011;19031;51.400;6.770;2023-08-31T13:10:13;5.07;;;1.23;;
32613;SDS011;19031;51.400;6.770;2023-08-31T13:12:39;5.03;;;1.20;;
32613;SDS011;19031;51.400;6.770;2023-08-31T13:15:05;6.25;;;1.50;;
32613;SDS011;19031;51.400;6.770;2023-08-31T13:17:33;4.95;;;1.63;;
32613;SDS011;19031;51.400;6.770;2023-08-31T13:19:58;4.75;;;1.15;;
32613;SDS011;19031;51.400;6.770;2023-08-31T13:22:24;3.35;;;1.27;;
32613;SDS011;19031;51.400;6.770;2023-08-31T13:24:50;5.72;;;1.20;;
32613;SDS011;19031;51.400;6.770;2023-08-31T13:27:16;4.28;;;1.33;;
32613;SDS011;19031;51.400;6.770;2023-08-31T13:29:42;5.60;;;1.20;;
32613;SDS011;19031;51.400;6.770;2023-08-31T13:32:08;3.95;;;1.10;;
32613;SDS011;19031;51.400;6.770;2023-08-31T13:34:34;5.95;;;1.20;;
32613;SDS011;19031;51.400;6.770;2023-08-31T13:37:01;2.80;;;1.45;;
32613;SDS011;19031;51.400;6.770;2023-08-31T13:39:28;7.40;;;1.60;;
32613;SDS011;19031;51.400;6.770;2023-08-31T13:41:57;5.07;;;1.70;;
32613;SDS011;19031;51.400;6.770;2023-08-31T13:44:27;4.70;;;1.35;;
32613;SDS011;19031;51.400;6.770;2023-08-31T13:46:57;5.88;;;1.20;;
32613;SDS011;19031;51.400;6.770;2023-08-31T13:49:22;3.55;;;1.40;;
32613;SDS011;19031;51.400;6.770;2023-08-31T13:51:48;3.65;;;1.10;;
32613;SDS011;19031;51.400;6.770;2023-08-31T13:54:14;6.80;;;1.20;;
32613;SDS011;19031;51.400;6.770;2023-08-31T13:56:40;4.40;;;1.10;;
32613;SDS011;19031;51.400;6.770;2023-08-31T13:59:08;2.08;;;0.95;;
32613;SDS011;19031;51.400;6.770;2023-08-31T14:01:33;4.88;;;1.13;;
32613;SDS011;19031;51.400;6.770;2023-08-31T14:03:59;4.18;;;1.30;;
32613;SDS011;19031;51.400;6.770;2023-08-31T14:06:26;4.75;;;1.30;;
32613;SDS011;19031;51.400;6.770;2023-08-31T14:08:52;4.35;;;1.40;;
32613;SDS011;19031;51.400;6.770;2023-08-31T14:11:18;4.65;;;1.30;;
32613;SDS011;19031;51.400;6.770;2023-08-31T14:13:45;4.43;;;1.45;;
32613;SDS011;19031;51.400;6.770;2023-08-31T14:16:11;3.55;;;1.90;;
32613;SDS011;19031;51.400;6.770;2023-08-31T14:18:37;5.82;;;2.05;;
32613;SDS011;19031;51.400;6.770;2023-08-31T14:21:03;7.88;;;1.70;;
32613;SDS011;19031;51.400;6.770;2023-08-31T14:23:29;8.98;;;2.70;;
32613;SDS011;19031;51.400;6.770;2023-08-31T14:26:02;5.03;;;2.40;;
32613;SDS011;19031;51.400;6.770;2023-08-31T14:28:29;5.65;;;3.03;;
32613;SDS011;19031;51.400;6.770;2023-08-31T14:30:55;7.60;;;3.10;;
32613;SDS011;19031;51.400;6.770;2023-08-31T14:33:21;9.63;;;2.90;;
32613;SDS011;19031;51.400;6.770;2023-08-31T14:35:49;7.53;;;2.40;;
32613;SDS011;19031;51.400;6.770;2023-08-31T14:38:20;6.93;;;2.40;;
32613;SDS011;19031;51.400;6.770;2023-08-31T14:40:49;5.57;;;2.78;;
32613;SDS011;19031;51.400;6.770;2023-08-31T14:43:16;5.18;;;2.10;;
32613;SDS011;19031;51.400;6.770;2023-08-31T14:45:42;5.13;;;2.28;;
32613;SDS011;19031;51.400;6.770;2023-08-31T14:48:08;4.40;;;2.13;;
32613;SDS011;19031;51.400;6.770;2023-08-31T14:50:34;5.47;;;2.28;;
32613;SDS011;19031;51.400;6.770;2023-08-31T14:52:59;6.18;;;2.28;;
32613;SDS011;19031;51.400;6.770;2023-08-31T14:55:25;3.85;;;2.10;;
32613;SDS011;19031;51.400;6.770;2023-08-31T14:57:52;7.53;;;2.35;;
32613;SDS011;19031;51.400;6.770;2023-08-31T15:00:17;6.10;;;2.65;;
32613;SDS011;19031;51.400;6.770;2023-08-31T15:02:46;9.82;;;2.53;;
32613;SDS011;19031;51.400;6.770;2023-08-31T15:05:13;5.55;;;2.42;;
32613;SDS011;19031;51.400;6.770;2023-08-31T15:07:38;9.35;;;2.65;;
32613;SDS011;19031;51.400;6.770;2023-08-31T15:10:04;5.93;;;2.85;;
32613;SDS011;19031;51.400;6.770;2023-08-31T15:12:31;6.10;;;2.40;;